Time;durP1;ratioP1;P1;durP2;ratioP2;P2;SDS_P1;SDS_P2;PMS_P1;PMS_P2;Temp;Humidity;BMP_temperature;BMP_pressure;BME280_temperature;BME280_humidity;BME280_pressure;Samples;Min_cycle;Max_cycle;Signal;HPM_P1;HPM_P2
2022/11/28 00:01:34;;;;;;;59.47;37.08;;;128.70;2252.80;;;;;;5096426;28;20123;-86
2022/11/28 00:04:00;;;;;;;66.80;39.22;;;128.60;2252.80;;;;;;5096389;28;20032;-86
2022/11/28 00:06:26;;;;;;;75.43;49.97;;;128.50;2252.80;;;;;;5096052;28;20036;-86
2022/11/28 00:08:52;;;;;;;76.60;49.33;;;128.10;2252.80;;;;;;5097206;28;20099;-86
2022/11/28 00:11:18;;;;;;;71.50;47.58;;;128.50;2252.80;;;;;;5096209;28;20051;-86
2022/11/28 00:13:45;;;;;;;75.15;44.63;;;128.50;1996.80;;;;;;5092797;28;20360;-86
2022/11/28 00:16:19;;;;;;;61.47;38.80;;;128.50;2252.80;;;;;;5076103;28;20077;-86
2022/11/28 00:18:44;;;;;;;55.72;36.80;;;128.50;2150.40;;;;;;5074956;28;20059;-86
2022/11/28 00:21:12;;;;;;;56.15;35.72;;;128.50;2252.80;;;;;;5075522;28;20078;-85
2022/11/28 00:23:39;;;;;;;62.22;37.58;;;128.50;2073.60;;;;;;5075878;28;20483;-85
2022/11/28 00:26:13;;;;;;;78.97;49.00;;;128.40;2252.80;;;;;;5075503;28;20020;-85
2022/11/28 00:28:39;;;;;;;80.05;45.28;;;128.50;2252.80;;;;;;5075624;28;20054;-85
2022/11/28 00:31:05;;;;;;;54.70;32.17;;;128.50;2252.80;;;;;;5075622;28;20032;-86
2022/11/28 00:33:32;;;;;;;47.20;28.85;;;128.60;2252.80;;;;;;5075520;28;20372;-85
2022/11/28 00:36:03;;;;;;;42.75;26.77;;;128.70;2252.80;;;;;;5075504;28;20024;-87
2022/11/28 00:38:29;;;;;;;44.90;25.35;;;128.70;2252.80;;;;;;5075533;28;20021;-85
2022/11/28 00:41:00;;;;;;;34.83;21.67;;;128.70;2252.80;;;;;;5074946;28;20052;-86
2022/11/28 00:43:26;;;;;;;33.55;20.85;;;128.80;2252.80;;;;;;5075397;28;20032;-86
2022/11/28 00:45:52;;;;;;;30.90;20.63;;;128.80;2252.80;;;;;;5088445;28;20478;-86
2022/11/28 00:48:18;;;;;;;32.30;20.60;;;128.80;2252.80;;;;;;5095329;28;20098;-86
2022/11/28 00:50:44;;;;;;;33.85;21.08;;;128.70;2252.80;;;;;;5095207;28;20028;-86
2022/11/28 00:53:09;;;;;;;40.38;24.23;;;128.70;2252.80;;;;;;5095252;28;20119;-86
2022/11/28 00:55:38;;;;;;;47.55;27.50;;;128.70;2252.80;;;;;;5095101;28;20028;-86
2022/11/28 00:58:04;;;;;;;50.25;30.08;;;128.70;2252.80;;;;;;5096312;28;20055;-86
2022/11/28 01:00:29;;;;;;;51.17;31.88;;;128.60;2252.80;;;;;;5094685;28;20070;-86
2022/11/28 01:02:55;;;;;;;56.78;36.67;;;128.60;2252.80;;;;;;5095078;28;20078;-86
2022/11/28 01:05:21;;;;;;;60.05;37.58;;;128.50;2252.80;;;;;;5095942;28;20031;-86
2022/11/28 01:07:47;;;;;;;60.17;37.28;;;128.50;2252.80;;;;;;5095060;28;20628;-86
2022/11/28 01:10:13;;;;;;;60.33;38.38;;;128.50;2252.80;;;;;;5095022;28;20157;-87
2022/11/28 01:12:38;;;;;;;81.78;47.92;;;128.60;2252.80;;;;;;5095997;28;20452;-86
2022/11/28 01:15:06;;;;;;;84.93;49.05;;;128.50;2252.80;;;;;;5094910;28;20516;-86
2022/11/28 01:17:32;;;;;;;84.35;50.75;;;128.50;2252.80;;;;;;5095024;28;20050;-86
2022/11/28 01:19:58;;;;;;;88.13;52.65;;;128.60;2252.80;;;;;;5095020;28;20460;-86
2022/11/28 01:22:23;;;;;;;87.65;51.17;;;128.60;2252.80;;;;;;5094915;28;20035;-86
2022/11/28 01:24:49;;;;;;;68.32;43.80;;;128.60;2252.80;;;;;;5094610;28;20123;-86
2022/11/28 01:27:15;;;;;;;63.47;40.22;;;128.60;2252.80;;;;;;5094514;28;20024;-87
2022/11/28 01:29:41;;;;;;;61.40;38.45;;;128.60;2252.80;;;;;;5093877;28;20081;-86
2022/11/28 01:32:06;;;;;;;63.53;40.75;;;128.60;2252.80;;;;;;5094537;28;20028;-86
2022/11/28 01:34:32;;;;;;;57.10;36.55;;;128.60;2252.80;;;;;;5094015;28;20028;-86
2022/11/28 01:36:59;;;;;;;52.97;31.88;;;128.60;2252.80;;;;;;5094608;28;20025;-86
2022/11/28 01:39:25;;;;;;;51.40;30.30;;;128.60;2252.80;;;;;;5094789;28;20059;-87
2022/11/28 01:41:50;;;;;;;50.72;29.80;;;128.60;2252.80;;;;;;5094489;28;20145;-86
2022/11/28 01:44:19;;;;;;;47.33;28.45;;;128.60;2252.80;;;;;;5094315;28;20056;-87
2022/11/28 01:46:45;;;;;;;44.67;26.90;;;128.50;2252.80;;;;;;5094505;28;20035;-87
2022/11/28 01:49:18;;;;;;;47.92;30.17;;;128.60;2252.80;;;;;;5094260;28;20024;-84
2022/11/28 01:51:47;;;;;;;44.88;29.73;;;128.50;2252.80;;;;;;5096037;28;20028;-86
2022/11/28 01:54:15;;;;;;;52.83;29.30;;;128.50;2252.80;;;;;;5094366;28;20024;-87
2022/11/28 01:56:50;;;;;;;47.63;30.05;;;128.50;2252.80;;;;;;5094031;28;20024;-87
2022/11/28 01:59:17;;;;;;;50.30;26.88;;;128.50;2252.80;;;;;;5095159;28;20468;-86
2022/11/28 02:01:44;;;;;;;47.83;28.95;;;128.60;2252.80;;;;;;5093921;28;20498;-87
2022/11/28 02:04:11;;;;;;;51.42;31.38;;;128.20;2252.80;;;;;;5094107;28;20035;-87
2022/11/28 02:06:37;;;;;;;56.47;34.80;;;128.50;2252.80;;;;;;5093984;28;20032;-87
2022/11/28 02:09:05;;;;;;;48.85;30.15;;;128.50;2252.80;;;;;;5094058;28;20024;-85
2022/11/28 02:11:36;;;;;;;46.80;28.70;;;128.50;2252.80;;;;;;5093525;28;20042;-86
2022/11/28 02:14:39;;;;;;;53.92;29.55;;;128.50;2252.80;;;;;;5094049;28;20103;-87
2022/11/28 02:17:19;;;;;;;45.05;28.92;;;128.60;2252.80;;;;;;5093999;28;20024;-87
2022/11/28 02:20:03;;;;;;;46.38;29.95;;;128.60;2252.80;;;;;;5093868;28;20020;-86
2022/11/28 02:22:51;;;;;;;51.40;31.88;;;128.50;2252.80;;;;;;5093516;28;20024;-86
2022/11/28 02:25:44;;;;;;;52.92;30.83;;;128.50;2252.80;;;;;;5093674;28;20028;-86
2022/11/28 02:28:47;;;;;;;52.50;31.42;;;128.50;2252.80;;;;;;5093864;28;20028;-86
2022/11/28 02:31:45;;;;;;;49.22;28.35;;;128.50;2252.80;;;;;;5093599;28;20028;-86
2022/11/28 02:34:43;;;;;;;64.22;33.65;;;128.40;2252.80;;;;;;5062544;28;20097;-87
2022/11/28 02:37:21;;;;;;;71.93;37.38;;;128.30;2252.80;;;;;;5078097;28;20028;-86
2022/11/28 02:40:18;;;;;;;58.03;31.38;;;128.30;2252.80;;;;;;5094405;28;20131;-86
2022/11/28 02:43:08;;;;;;;59.70;33.25;;;128.30;2252.80;;;;;;5084970;28;20040;-86
2022/11/28 02:46:11;;;;;;;51.13;30.60;;;128.40;2252.80;;;;;;5093543;28;20123;-86
2022/11/28 02:48:47;;;;;;;52.72;31.40;;;128.50;2252.80;;;;;;5093690;28;20055;-86
2022/11/28 02:51:24;;;;;;;50.85;31.30;;;128.40;2252.80;;;;;;5093655;28;20081;-86
2022/11/28 02:53:52;;;;;;;49.28;29.00;;;128.50;2252.80;;;;;;5093324;28;20032;-87
2022/11/28 02:56:18;;;;;;;50.22;29.38;;;128.40;2252.80;;;;;;5093508;28;20020;-86
2022/11/28 02:58:43;;;;;;;49.45;30.48;;;128.40;2252.80;;;;;;5093465;28;20078;-86
2022/11/28 03:01:18;;;;;;;56.80;31.35;;;128.50;2252.80;;;;;;5093318;28;20039;-86
2022/11/28 03:04:16;;;;;;;53.40;29.83;;;128.50;2252.80;;;;;;5093399;28;20075;-86
2022/11/28 03:07:06;;;;;;;51.78;31.42;;;128.50;2252.80;;;;;;5093032;28;20077;-86
2022/11/28 03:09:55;;;;;;;44.60;28.58;;;128.50;2252.80;;;;;;5093092;28;20020;-86
2022/11/28 03:12:33;;;;;;;49.05;28.67;;;128.50;2252.80;;;;;;5093142;28;20024;-86
2022/11/28 03:15:06;;;;;;;46.22;26.88;;;128.40;2252.80;;;;;;5093266;28;20410;-87
2022/11/28 03:17:31;;;;;;;;;;;128.60;2252.80;;;;;;5093485;28;20024;-86
2022/11/28 03:20:03;;;;;;;50.03;29.63;;;128.50;2252.80;;;;;;5093108;28;19904;-85
2022/11/28 03:22:46;;;;;;;56.10;32.83;;;128.50;2252.80;;;;;;5093691;28;20066;-86
2022/11/28 03:25:21;;;;;;;57.95;32.45;;;128.50;2252.80;;;;;;5097370;28;20031;-87
2022/11/28 03:28:03;;;;;;;56.90;31.10;;;128.60;2252.80;;;;;;5096922;28;20028;-87
2022/11/28 03:30:38;;;;;;;57.20;31.70;;;128.60;2252.80;;;;;;5096806;28;20028;-86
2022/11/28 03:33:05;;;;;;;50.33;29.38;;;128.70;2252.80;;;;;;5097256;28;20486;-86
2022/11/28 03:35:37;;;;;;;52.65;30.08;;;128.60;2252.80;;;;;;5096555;28;20432;-86
2022/11/28 03:38:11;;;;;;;48.78;26.25;;;128.60;2252.80;;;;;;5097952;28;20030;-86
2022/11/28 03:40:45;;;;;;;43.08;25.42;;;128.60;2252.80;;;;;;5096691;28;20511;-86
2022/11/28 03:43:18;;;;;;;41.70;24.48;;;128.60;2252.80;;;;;;5096784;28;20109;-86
2022/11/28 03:45:55;;;;;;;50.25;29.85;;;128.60;2252.80;;;;;;5096828;28;20059;-86
2022/11/28 03:48:34;;;;;;;52.10;30.92;;;128.50;2252.80;;;;;;5096506;28;20033;-86
2022/11/28 03:51:19;;;;;;;50.88;30.77;;;128.60;2252.80;;;;;;5096519;28;20032;-86
2022/11/28 03:53:45;;;;;;;42.20;26.35;;;128.60;2252.80;;;;;;5096592;28;20111;-86
2022/11/28 03:56:17;;;;;;;49.47;25.58;;;128.50;2252.80;;;;;;5096412;28;20063;-86
2022/11/28 03:59:08;;;;;;;42.67;25.27;;;128.50;2252.80;;;;;;5096577;28;20413;-86
2022/11/28 04:02:18;;;;;;;48.63;28.02;;;128.50;2252.80;;;;;;5096605;28;20063;-86
2022/11/28 04:04:49;;;;;;;39.33;27.23;;;128.50;2252.80;;;;;;5060653;28;20506;-86
2022/11/28 04:07:40;;;;;;;42.47;26.52;;;128.50;2252.80;;;;;;5096469;28;20061;-85
2022/11/28 04:10:09;;;;;;;45.92;28.02;;;128.50;2252.80;;;;;;5096701;28;20130;-86
2022/11/28 04:12:54;;;;;;;44.90;27.27;;;128.50;2252.80;;;;;;5097122;28;20028;-86
2022/11/28 04:15:26;;;;;;;55.10;33.30;;;128.90;2252.80;;;;;;5095943;28;20032;-86
2022/11/28 04:18:26;;;;;;;51.88;31.58;;;128.50;2252.80;;;;;;5095762;28;20028;-86
2022/11/28 04:21:16;;;;;;;42.90;25.75;;;128.50;2252.80;;;;;;5088294;28;20131;-86
2022/11/28 04:23:45;;;;;;;44.00;27.52;;;128.50;2252.80;;;;;;5095575;28;20016;-85
2022/11/28 04:26:23;;;;;;;47.97;27.52;;;128.50;2252.80;;;;;;5095729;28;20379;-86
2022/11/28 04:28:50;;;;;;;42.10;25.83;;;128.50;2252.80;;;;;;5095781;28;20073;-85
2022/11/28 04:31:18;;;;;;;47.72;28.80;;;128.60;2252.80;;;;;;5075225;28;20031;-85
2022/11/28 04:33:50;;;;;;;62.00;37.95;;;128.60;2252.80;;;;;;5074896;28;20035;-86
2022/11/28 04:36:19;;;;;;;48.05;30.63;;;128.60;2252.80;;;;;;5074962;28;20021;-87
2022/11/28 04:38:53;;;;;;;44.60;29.17;;;128.60;2252.80;;;;;;5109342;28;20435;-86
2022/11/28 04:41:23;;;;;;;51.58;31.17;;;128.60;2252.80;;;;;;5108749;28;20044;-86
2022/11/28 04:43:59;;;;;;;59.13;37.47;;;128.70;2252.80;;;;;;5076416;28;20024;-86
2022/11/28 04:46:31;;;;;;;65.88;43.78;;;128.70;2252.80;;;;;;5109182;28;20491;-86
2022/11/28 04:48:57;;;;;;;78.25;53.08;;;128.70;2252.80;;;;;;5109050;28;20081;-86
2022/11/28 04:51:45;;;;;;;79.10;53.25;;;128.60;2252.80;;;;;;5109001;28;20028;-85
2022/11/28 04:54:21;;;;;;;78.82;58.20;;;128.60;2252.80;;;;;;5109308;28;20123;-86
2022/11/28 04:57:02;;;;;;;85.20;54.28;;;128.40;2252.80;;;;;;5109560;28;20048;-86
2022/11/28 04:59:30;;;;;;;69.95;45.92;;;128.60;2252.80;;;;;;5109196;28;20357;-86
2022/11/28 05:02:01;;;;;;;52.85;36.72;;;128.50;2252.80;;;;;;5108981;28;20039;-86
2022/11/28 05:04:27;;;;;;;57.95;36.20;;;128.50;2252.80;;;;;;5108848;28;20119;-87
2022/11/28 05:07:07;;;;;;;52.90;35.95;;;128.60;2252.80;;;;;;5121382;27;20109;-86
2022/11/28 05:09:32;;;;;;;63.33;39.03;;;128.60;2252.80;;;;;;5094982;28;20020;-86
2022/11/28 05:11:58;;;;;;;65.00;42.13;;;128.70;2252.80;;;;;;5095628;28;20028;-86
2022/11/28 05:14:25;;;;;;;76.50;47.78;;;128.70;2252.80;;;;;;5094833;28;20027;-86
2022/11/28 05:16:51;;;;;;;72.40;47.58;;;128.80;2252.80;;;;;;5094851;28;20032;-86
2022/11/28 05:19:16;;;;;;;67.65;43.80;;;128.70;2252.80;;;;;;5094793;28;20031;-86
2022/11/28 05:21:42;;;;;;;67.25;45.58;;;128.70;2252.80;;;;;;5094985;28;20058;-86
2022/11/28 05:24:08;;;;;;;71.50;47.25;;;128.70;2252.80;;;;;;5094734;28;20063;-86
2022/11/28 05:26:34;;;;;;;68.85;47.22;;;128.80;2252.80;;;;;;5094722;28;20466;-86
2022/11/28 05:29:00;;;;;;;74.47;47.33;;;128.70;2252.80;;;;;;5094754;28;20056;-86
2022/11/28 05:31:27;;;;;;;76.28;48.33;;;128.70;2252.80;;;;;;5094520;28;20035;-86
2022/11/28 05:33:54;;;;;;;62.65;41.70;;;128.60;2252.80;;;;;;5095629;28;20035;-86
2022/11/28 05:36:20;;;;;;;60.67;39.97;;;128.60;2252.80;;;;;;5094379;28;20062;-86
2022/11/28 05:38:46;;;;;;;62.33;40.33;;;128.50;2252.80;;;;;;5094410;28;20065;-86
2022/11/28 05:41:30;;;;;;;63.85;41.30;;;128.50;2252.80;;;;;;5093906;28;20055;-86
2022/11/28 05:43:57;;;;;;;85.20;47.63;;;128.40;2252.80;;;;;;5094191;28;20024;-85
2022/11/28 05:46:23;;;;;;;76.97;45.25;;;128.50;2252.80;;;;;;5073739;28;20025;-86
2022/11/28 05:48:50;;;;;;;310.83;127.97;;;128.40;2252.80;;;;;;5073357;28;20024;-86
2022/11/28 05:51:16;;;;;;;238.05;104.93;;;128.50;2252.80;;;;;;5073891;28;20047;-87
2022/11/28 05:53:42;;;;;;;144.88;71.53;;;128.60;2252.80;;;;;;5073962;28;20028;-86
2022/11/28 05:56:14;;;;;;;71.30;41.53;;;128.60;2252.80;;;;;;5073638;28;20529;-86
2022/11/28 05:58:41;;;;;;;178.60;75.88;;;128.60;2252.80;;;;;;5073914;28;20112;-85
2022/11/28 06:01:17;;;;;;;268.77;108.10;;;128.60;2252.80;;;;;;5073730;28;20044;-86
2022/11/28 06:03:43;;;;;;;221.05;90.68;;;128.60;1996.80;;;;;;5073608;28;20055;-86
2022/11/28 06:06:20;;;;;;;131.80;62.72;;;128.60;2252.80;;;;;;5075084;28;20341;-86
2022/11/28 06:08:48;;;;;;;102.18;57.22;;;128.70;2252.80;;;;;;5073722;28;20515;-86
2022/11/28 06:11:15;;;;;;;80.38;49.78;;;128.60;2252.80;;;;;;5073854;28;20031;-86
2022/11/28 06:13:45;;;;;;;70.47;45.17;;;128.50;2252.80;;;;;;5077277;28;20127;-86
2022/11/28 06:16:13;;;;;;;69.32;45.42;;;128.60;2252.80;;;;;;5107479;28;20025;-86
2022/11/28 06:18:40;;;;;;;77.22;49.05;;;128.60;2252.80;;;;;;5106884;28;20047;-86
2022/11/28 06:21:08;;;;;;;76.55;49.03;;;128.50;2252.80;;;;;;5107444;28;20407;-86
2022/11/28 06:23:34;;;;;;;74.05;45.25;;;128.50;2252.80;;;;;;5107255;28;20025;-87
2022/11/28 06:26:08;;;;;;;71.97;47.17;;;128.40;2252.80;;;;;;5107445;28;20051;-86
2022/11/28 06:28:34;;;;;;;83.63;51.85;;;128.40;2252.80;;;;;;5107804;28;20127;-86
2022/11/28 06:31:01;;;;;;;95.22;59.78;;;128.50;2252.80;;;;;;5107183;28;20043;-85
2022/11/28 06:33:27;;;;;;;86.20;53.55;;;128.70;2252.80;;;;;;5107246;28;20089;-85
2022/11/28 06:35:59;;;;;;;106.75;65.65;;;128.70;2252.80;;;;;;5107381;28;20162;-86
2022/11/28 06:38:25;;;;;;;;;;;128.60;2252.80;;;;;;5107964;28;20346;-86
2022/11/28 06:40:54;;;;;;;148.57;93.40;;;128.60;2252.80;;;;;;5096284;28;19951;-85
2022/11/28 06:43:20;;;;;;;145.48;94.18;;;128.50;2252.80;;;;;;5131484;28;20021;-85
2022/11/28 06:45:46;;;;;;;107.75;67.93;;;128.50;2252.80;;;;;;5131553;28;20013;-85
2022/11/28 06:48:11;;;;;;;84.68;52.17;;;128.60;2252.80;;;;;;5131852;28;20016;-85
2022/11/28 06:50:37;;;;;;;79.40;51.20;;;128.70;2252.80;;;;;;5131326;28;20009;-84
2022/11/28 06:53:03;;;;;;;115.15;80.97;;;128.60;2252.80;;;;;;5131614;28;20009;-86
2022/11/28 06:55:29;;;;;;;84.90;57.67;;;128.70;2252.80;;;;;;5119105;28;20035;-86
2022/11/28 06:57:55;;;;;;;83.88;52.30;;;128.60;2252.80;;;;;;5111395;28;20025;-86
2022/11/28 07:00:20;;;;;;;81.78;49.45;;;128.70;2201.60;;;;;;5112597;28;20044;-86
2022/11/28 07:02:46;;;;;;;70.18;44.40;;;128.70;2252.80;;;;;;5112120;28;20029;-86
2022/11/28 07:05:15;;;;;;;80.00;53.35;;;128.70;2252.80;;;;;;5110923;28;20028;-85
2022/11/28 07:07:41;;;;;;;88.22;54.80;;;128.70;2252.80;;;;;;5111818;28;20029;-87
2022/11/28 07:10:08;;;;;;;99.25;59.85;;;128.70;2201.60;;;;;;5113271;28;20025;-86
2022/11/28 07:12:34;;;;;;;127.57;77.35;;;128.80;2252.80;;;;;;5112515;28;20487;-86
2022/11/28 07:14:59;;;;;;;129.48;75.63;;;128.90;2252.80;;;;;;5112829;28;20021;-86
2022/11/28 07:17:25;;;;;;;65.35;42.70;;;153.60;2252.80;;;;;;5078264;28;20488;-85
2022/11/28 07:19:51;;;;;;;61.83;40.78;;;153.60;2252.80;;;;;;5111867;28;20047;-86
2022/11/28 07:22:17;;;;;;;67.07;39.40;;;153.60;2252.80;;;;;;5111697;28;20127;-88
2022/11/28 07:24:44;;;;;;;57.83;36.28;;;;;;;;;;5126887;27;20485;-87
2022/11/28 07:27:10;;;;;;;55.45;35.25;;;;;;;;;;5096335;28;20024;-86
2022/11/28 07:29:36;;;;;;;55.97;34.95;;;;;;;;;;5097765;28;20020;-85
2022/11/28 07:32:06;;;;;;;61.85;36.83;;;;;;;;;;5099628;28;20071;-85
2022/11/28 07:34:33;;;;;;;66.70;42.22;;;;;;;;;;5105533;27;20563;-86
2022/11/28 07:36:59;;;;;;;40.42;27.02;;;;;;;;;;5087604;28;20103;-86
2022/11/28 07:39:25;;;;;;;56.33;37.97;;;;;;;;;;5096884;28;20480;-85
2022/11/28 07:41:52;;;;;;;40.30;27.40;;;;;;;;;;5108538;28;20042;-84
2022/11/28 07:44:18;;;;;;;43.35;28.45;;;;;;;;;;5117668;28;20024;-86
2022/11/28 07:46:45;;;;;;;42.33;30.00;;;;;;;;;;5118885;28;20026;-86
2022/11/28 07:49:12;;;;;;;37.83;25.95;;;154.00;2252.80;;;;;;5117712;28;20030;-85
2022/11/28 07:51:38;;;;;;;24.40;17.58;;;153.80;2252.80;;;;;;5118772;28;20040;-86
2022/11/28 07:54:05;;;;;;;33.35;21.88;;;153.80;2252.80;;;;;;5117643;28;20024;-86
2022/11/28 07:56:36;;;;;;;35.15;24.27;;;153.80;2252.80;;;;;;5119809;28;20096;-86
2022/11/28 07:59:03;;;;;;;40.75;26.85;;;153.90;2252.80;;;;;;5118791;28;20016;-85
2022/11/28 08:01:32;;;;;;;38.78;26.05;;;154.10;2252.80;;;;;;5117512;28;20024;-85
2022/11/28 08:03:58;;;;;;;35.67;21.98;;;;;;;;;;5099437;28;20383;-87
2022/11/28 08:06:26;;;;;;;30.77;22.80;;;;;;;;;;5096338;28;20032;-84
2022/11/28 08:08:53;;;;;;;30.08;20.27;;;;;;;;;;5091873;28;20104;-85
2022/11/28 08:11:20;;;;;;;29.77;21.25;;;;;;;;;;5109642;28;20024;-85
2022/11/28 08:13:46;;;;;;;29.17;19.95;;;;;;;;;;5109812;28;20052;-86
2022/11/28 08:16:14;;;;;;;27.42;18.15;;;;;;;;;;5109479;28;20482;-86
2022/11/28 08:18:41;;;;;;;29.15;18.90;;;;;;;;;;5110609;28;20023;-89
2022/11/28 08:21:08;;;;;;;20.77;16.02;;;;;;;;;;5110736;28;20072;-88
2022/11/28 08:23:35;;;;;;;22.50;15.32;;;154.50;2252.80;;;;;;5110249;28;20419;-87
2022/11/28 08:26:02;;;;;;;22.25;17.35;;;179.20;2252.80;;;;;;5077149;28;20021;-87
2022/11/28 08:28:30;;;;;;;27.45;19.08;;;154.50;2252.80;;;;;;5109842;28;20028;-88
2022/11/28 08:30:56;;;;;;;24.48;17.77;;;154.50;2252.80;;;;;;5087717;28;20024;-87
2022/11/28 08:33:23;;;;;;;19.23;14.30;;;154.00;2252.80;;;;;;5095798;28;20031;-86
2022/11/28 08:35:50;;;;;;;34.30;23.27;;;179.20;2252.80;;;;;;5096452;28;20032;-86
2022/11/28 08:38:16;;;;;;;37.97;27.50;;;179.20;2252.80;;;;;;5095291;28;20020;-86
2022/11/28 08:40:41;;;;;;;46.70;30.98;;;179.20;2252.80;;;;;;5094897;28;20055;-83
2022/11/28 08:43:07;;;;;;;37.85;22.95;;;;;;;;;;5094823;28;20028;-84
2022/11/28 08:45:37;;;;;;;21.92;15.38;;;;;;;;;;5095111;28;20020;-84
2022/11/28 08:48:04;;;;;;;15.75;11.80;;;;;;;;;;5095813;28;20032;-85
2022/11/28 08:50:30;;;;;;;15.30;9.95;;;;;;;;;;5093759;28;20063;-86
2022/11/28 08:52:56;;;;;;;15.00;11.00;;;;;;;;;;5108757;28;20471;-82
2022/11/28 08:55:22;;;;;;;12.52;8.65;;;;;;;;;;5099446;28;20020;-85
2022/11/28 08:57:48;;;;;;;15.98;8.55;;;;;;;;;;5094100;28;20119;-84
2022/11/28 09:00:15;;;;;;;16.95;11.07;;;;;;;;;;5095794;28;20016;-83
2022/11/28 09:02:41;;;;;;;37.17;24.48;;;;;;;;;;5094124;28;21914;-84
2022/11/28 09:05:07;;;;;;;30.10;21.05;;;;;;;;;;5093710;28;20073;-84
2022/11/28 09:07:33;;;;;;;25.92;19.30;;;;;;;;;;5095003;28;20107;-85
2022/11/28 09:09:59;;;;;;;23.58;16.50;;;;;;;;;;5092988;28;20020;-87
2022/11/28 09:12:26;;;;;;;23.92;17.33;;;;;;;;;;5094115;28;20019;-82
2022/11/28 09:14:52;;;;;;;22.95;15.48;;;;;;;;;;5091808;28;20027;-81
2022/11/28 09:17:18;;;;;;;24.92;14.75;;;;;;;;;;5092082;28;20113;-83
2022/11/28 09:19:44;;;;;;;23.08;14.80;;;;;;;;;;5092431;28;20581;-84
2022/11/28 09:22:10;;;;;;;29.90;21.05;;;;;;;;;;5102389;28;20032;-83
2022/11/28 09:24:36;;;;;;;27.52;19.30;;;204.80;2252.80;;;;;;5095332;28;20468;-83
2022/11/28 09:27:02;;;;;;;25.38;18.35;;;180.10;2252.80;;;;;;5099407;28;20027;-81
2022/11/28 09:29:28;;;;;;;19.70;14.13;;;180.10;2252.80;;;;;;5093333;28;20027;-83
2022/11/28 09:31:54;;;;;;;30.65;18.65;;;;;;;;;;5099960;28;20027;-81
2022/11/28 09:34:20;;;;;;;40.20;25.33;;;;;;;;;;5092976;28;20013;-82
2022/11/28 09:36:47;;;;;;;23.45;15.15;;;;;;;;;;5093407;28;20485;-81
2022/11/28 09:39:13;;;;;;;33.63;21.73;;;;;;;;;;5093383;28;20016;-84
2022/11/28 09:41:51;;;;;;;33.92;22.10;;;;;;;;;;5093009;28;20139;-82
2022/11/28 09:44:23;;;;;;;40.40;26.40;;;;;;;;;;5093340;28;20024;-84
2022/11/28 09:46:51;;;;;;;40.05;28.42;;;;;;;;;;5093845;28;20107;-85
2022/11/28 09:49:30;;;;;;;42.80;31.25;;;;;;;;;;5093464;28;20019;-83
2022/11/28 09:52:05;;;;;;;49.30;33.10;;;;;;;;;;5093266;28;20026;-83
2022/11/28 09:54:55;;;;;;;37.97;24.45;;;;;;;;;;5093847;28;20052;-86
2022/11/28 09:57:29;;;;;;;41.42;28.27;;;;;;;;;;5084940;28;20028;-86
2022/11/28 09:59:55;;;;;;;33.17;24.30;;;;;;;;;;5092629;28;20493;-83
2022/11/28 10:02:31;;;;;;;27.30;20.90;;;;;;;;;;5086788;28;20036;-87
2022/11/28 10:05:16;;;;;;;34.03;24.63;;;;;;;;;;5103487;28;20029;-85
2022/11/28 10:07:57;;;;;;;49.97;28.08;;;;;;;;;;5106605;28;20029;-86
2022/11/28 10:10:29;;;;;;;59.78;32.95;;;;;;;;;;5086346;28;20027;-86
2022/11/28 10:12:55;;;;;;;49.22;27.50;;;;;;;;;;5092907;28;20024;-85
2022/11/28 10:15:28;;;;;;;50.47;29.33;;;;;;;;;;5093203;28;20081;-85
2022/11/28 10:17:58;;;;;;;32.90;23.45;;;;;;;;;;5083336;28;20082;-85
2022/11/28 10:20:26;;;;;;;37.60;26.90;;;;;;;;;;5074246;28;20064;-85
2022/11/28 10:23:00;;;;;;;31.48;24.45;;;;;;;;;;5074466;28;20024;-84
2022/11/28 10:25:28;;;;;;;25.08;17.75;;;;;;;;;;5073108;28;20016;-85
2022/11/28 10:27:56;;;;;;;31.83;22.80;;;;;;;;;;5073161;28;20082;-84
2022/11/28 10:30:26;;;;;;;39.97;23.42;;;;;;;;;;5073765;28;20024;-84
2022/11/28 10:33:12;;;;;;;29.92;22.42;;;;;;;;;;5106499;28;20047;-86
2022/11/28 10:35:42;;;;;;;37.42;25.42;;;;;;;;;;5068910;28;20063;-85
2022/11/28 10:38:15;;;;;;;30.48;23.90;;;;;;;;;;5106588;28;20112;-87
2022/11/28 10:40:44;;;;;;;24.48;17.38;;;;;;;;;;5112138;28;20067;-86
2022/11/28 10:43:50;;;;;;;38.45;31.10;;;;;;;;;;5090316;28;20101;-83
2022/11/28 10:46:16;;;;;;;39.33;31.27;;;;;;;;;;5054965;28;20115;-85
2022/11/28 10:48:51;;;;;;;28.02;19.13;;;;;;;;;;5054808;28;20135;-85
2022/11/28 10:51:27;;;;;;;27.33;19.30;;;;;;;;;;5083432;28;20111;-85
2022/11/28 10:53:56;;;;;;;26.20;18.90;;;;;;;;;;5092854;28;20020;-82
2022/11/28 10:56:31;;;;;;;26.98;18.90;;;;;;;;;;5089500;28;20024;-85
2022/11/28 10:59:00;;;;;;;26.77;19.13;;;;;;;;;;5092103;28;20096;-86
2022/11/28 11:01:29;;;;;;;41.50;30.13;;;;;;;;;;5093353;28;20077;-84
2022/11/28 11:03:55;;;;;;;30.45;20.95;;;;;;;;;;5093296;28;20483;-84
2022/11/28 11:06:24;;;;;;;39.63;24.15;;;;;;;;;;5092543;28;20073;-84
2022/11/28 11:08:49;;;;;;;35.67;20.30;;;205.40;2252.80;;;;;;5092173;28;20035;-84
2022/11/28 11:11:29;;;;;;;35.08;21.15;;;205.30;2252.80;;;;;;5093823;28;20042;-86
2022/11/28 11:14:04;;;;;;;48.22;27.35;;;205.40;2252.80;;;;;;5090227;28;20097;-85
2022/11/28 11:16:58;;;;;;;30.05;22.55;;;205.50;2252.80;;;;;;5092277;28;20057;-84
2022/11/28 11:19:35;;;;;;;63.13;43.70;;;205.60;2252.80;;;;;;5091647;28;20429;-84
2022/11/28 11:22:05;;;;;;;34.08;22.40;;;205.60;2252.80;;;;;;5090637;28;20448;-86
2022/11/28 11:24:31;;;;;;;28.35;21.40;;;205.70;2252.80;;;;;;5089871;28;20043;-85
2022/11/28 11:27:16;;;;;;;31.60;21.92;;;205.60;2252.80;;;;;;5092725;28;20051;-84
2022/11/28 11:29:43;;;;;;;23.85;15.52;;;205.60;2252.80;;;;;;5091876;28;20431;-86
2022/11/28 11:32:20;;;;;;;27.85;19.10;;;205.50;2252.80;;;;;;5092056;28;20036;-85
2022/11/28 11:34:47;;;;;;;28.48;17.95;;;205.50;2252.80;;;;;;5092195;28;20107;-85
2022/11/28 11:37:29;;;;;;;28.40;19.33;;;230.40;2252.80;;;;;;5091593;28;20024;-85
2022/11/28 11:39:55;;;;;;;23.43;14.77;;;205.40;2252.80;;;;;;5091173;28;20048;-84
2022/11/28 11:42:24;;;;;;;28.33;19.13;;;205.40;2252.80;;;;;;5092424;28;20330;-84
2022/11/28 11:44:51;;;;;;;32.33;21.67;;;205.40;2252.80;;;;;;5093200;28;20028;-84
2022/11/28 11:47:17;;;;;;;29.48;19.30;;;205.30;2252.80;;;;;;5095687;28;20521;-84
2022/11/28 11:49:48;;;;;;;33.75;21.92;;;205.30;2252.80;;;;;;5094137;28;20051;-84
2022/11/28 11:52:17;;;;;;;37.03;26.10;;;205.20;2252.80;;;;;;5095254;28;20082;-84
2022/11/28 11:54:46;;;;;;;35.90;24.23;;;205.30;2252.80;;;;;;5096034;28;20032;-86
2022/11/28 11:57:14;;;;;;;25.15;18.42;;;205.30;2252.80;;;;;;5095778;28;20032;-84
2022/11/28 11:59:47;;;;;;;23.52;16.20;;;205.30;2252.80;;;;;;5095755;28;20054;-86
2022/11/28 12:02:25;;;;;;;37.08;27.17;;;205.30;2252.80;;;;;;5096670;28;20028;-85
2022/11/28 12:05:01;;;;;;;50.95;34.53;;;205.30;2252.80;;;;;;5094055;28;20036;-82
2022/11/28 12:07:50;;;;;;;37.42;24.70;;;205.30;2252.80;;;;;;5094475;28;20032;-83
2022/11/28 12:10:20;;;;;;;37.92;26.17;;;205.30;2252.80;;;;;;5088058;28;20071;-83
2022/11/28 12:12:46;;;;;;;45.63;28.48;;;205.30;2252.80;;;;;;5094880;28;20024;-82
2022/11/28 12:15:44;;;;;;;38.63;25.73;;;205.20;2252.80;;;;;;5094790;28;20120;-84
2022/11/28 12:18:19;;;;;;;51.65;32.92;;;205.20;2252.80;;;;;;5086275;28;20040;-87
2022/11/28 12:20:52;;;;;;;55.38;34.97;;;205.20;2252.80;;;;;;5095472;28;20021;-85
2022/11/28 12:23:29;;;;;;;63.65;39.53;;;205.20;2252.80;;;;;;5094757;28;20058;-85
2022/11/28 12:25:58;;;;;;;62.72;34.78;;;205.20;2252.80;;;;;;5096123;28;20028;-86
2022/11/28 12:28:46;;;;;;;54.15;35.35;;;205.30;2252.80;;;;;;5094881;28;20077;-85
2022/11/28 12:31:21;;;;;;;68.05;41.90;;;205.30;2252.80;;;;;;5095647;28;20035;-86
2022/11/28 12:33:58;;;;;;;84.20;49.92;;;205.30;2252.80;;;;;;5095453;28;20024;-87
2022/11/28 12:36:46;;;;;;;65.03;41.28;;;205.30;2252.80;;;;;;5094980;28;20028;-88
2022/11/28 12:39:59;;;;;;;47.47;28.35;;;205.30;2252.80;;;;;;5095481;28;20118;-87
2022/11/28 12:42:35;;;;;;;34.30;24.17;;;205.30;2252.80;;;;;;5081268;28;20044;-86
2022/11/28 12:45:37;;;;;;;49.67;29.52;;;205.30;2252.80;;;;;;5083532;28;20455;-86
2022/11/28 12:48:03;;;;;;;48.72;28.50;;;205.40;2252.80;;;;;;5053751;28;20094;-85
2022/11/28 12:50:37;;;;;;;49.17;32.03;;;205.40;2252.80;;;;;;5094338;28;20024;-87